sensor_id;sensor_type;location;lat;lon;timestamp;P1;durP1;ratioP1;P2;durP2;ratioP2
6432;SDS011;3249;42.690;23.260;2023-03-03T00:00:11;5.97;;;5.47;;
6432;SDS011;3249;42.690;23.260;2023-03-03T00:02:41;6.00;;;5.50;;
6432;SDS011;3249;42.690;23.260;2023-03-03T00:05:10;6.27;;;5.60;;
6432;SDS011;3249;42.690;23.260;2023-03-03T00:07:42;6.17;;;5.60;;
6432;SDS011;3249;42.690;23.260;2023-03-03T00:10:13;5.57;;;5.17;;
6432;SDS011;3249;42.690;23.260;2023-03-03T00:12:45;5.40;;;5.00;;
6432;SDS011;3249;42.690;23.260;2023-03-03T00:15:18;5.97;;;5.47;;
6432;SDS011;3249;42.690;23.260;2023-03-03T00:17:49;5.70;;;5.30;;
6432;SDS011;3249;42.690;23.260;2023-03-03T00:20:26;4.83;;;4.53;;
6432;SDS011;3249;42.690;23.260;2023-03-03T00:23:02;5.67;;;5.17;;
6432;SDS011;3249;42.690;23.260;2023-03-03T00:25:42;5.63;;;5.23;;
6432;SDS011;3249;42.690;23.260;2023-03-03T00:28:17;5.90;;;5.40;;
6432;SDS011;3249;42.690;23.260;2023-03-03T00:30:53;5.57;;;5.07;;
6432;SDS011;3249;42.690;23.260;2023-03-03T00:33:26;5.63;;;5.23;;
6432;SDS011;3249;42.690;23.260;2023-03-03T00:35:58;5.83;;;5.33;;
6432;SDS011;3249;42.690;23.260;2023-03-03T00:38:52;6.20;;;5.70;;
6432;SDS011;3249;42.690;23.260;2023-03-03T00:41:22;6.37;;;5.87;;
6432;SDS011;3249;42.690;23.260;2023-03-03T00:43:52;6.80;;;6.07;;
6432;SDS011;3249;42.690;23.260;2023-03-03T00:46:25;6.77;;;6.17;;
6432;SDS011;3249;42.690;23.260;2023-03-03T00:48:54;7.47;;;6.83;;
6432;SDS011;3249;42.690;23.260;2023-03-03T00:51:25;7.87;;;7.17;;
6432;SDS011;3249;42.690;23.260;2023-03-03T00:53:56;7.37;;;6.67;;
6432;SDS011;3249;42.690;23.260;2023-03-03T00:56:26;7.77;;;6.80;;
6432;SDS011;3249;42.690;23.260;2023-03-03T00:58:55;6.70;;;6.10;;
6432;SDS011;3249;42.690;23.260;2023-03-03T01:01:30;7.00;;;6.40;;
6432;SDS011;3249;42.690;23.260;2023-03-03T01:03:59;7.70;;;7.00;;
6432;SDS011;3249;42.690;23.260;2023-03-03T01:06:28;7.47;;;6.77;;
6432;SDS011;3249;42.690;23.260;2023-03-03T01:08:58;7.53;;;6.80;;
6432;SDS011;3249;42.690;23.260;2023-03-03T01:11:27;7.70;;;7.10;;
6432;SDS011;3249;42.690;23.260;2023-03-03T01:13:56;7.10;;;6.40;;
6432;SDS011;3249;42.690;23.260;2023-03-03T01:16:25;7.77;;;7.00;;
6432;SDS011;3249;42.690;23.260;2023-03-03T01:18:57;7.10;;;6.23;;
6432;SDS011;3249;42.690;23.260;2023-03-03T01:21:26;7.80;;;7.10;;
6432;SDS011;3249;42.690;23.260;2023-03-03T01:23:55;8.03;;;7.33;;
6432;SDS011;3249;42.690;23.260;2023-03-03T01:26:24;7.07;;;6.47;;
6432;SDS011;3249;42.690;23.260;2023-03-03T01:28:53;8.33;;;7.60;;
6432;SDS011;3249;42.690;23.260;2023-03-03T01:31:22;7.57;;;6.80;;
6432;SDS011;3249;42.690;23.260;2023-03-03T01:36:38;7.03;;;6.43;;
6432;SDS011;3249;42.690;23.260;2023-03-03T01:39:07;7.47;;;6.87;;
6432;SDS011;3249;42.690;23.260;2023-03-03T01:41:38;6.80;;;6.20;;
6432;SDS011;3249;42.690;23.260;2023-03-03T01:44:08;7.97;;;7.20;;
6432;SDS011;3249;42.690;23.260;2023-03-03T01:46:45;7.60;;;6.90;;
6432;SDS011;3249;42.690;23.260;2023-03-03T01:49:23;8.30;;;7.47;;
6432;SDS011;3249;42.690;23.260;2023-03-03T01:51:57;8.50;;;7.60;;
6432;SDS011;3249;42.690;23.260;2023-03-03T01:54:29;8.20;;;7.50;;
6432;SDS011;3249;42.690;23.260;2023-03-03T01:57:04;8.17;;;6.87;;
6432;SDS011;3249;42.690;23.260;2023-03-03T01:59:39;8.47;;;7.67;;
6432;SDS011;3249;42.690;23.260;2023-03-03T02:02:12;8.23;;;7.43;;
6432;SDS011;3249;42.690;23.260;2023-03-03T02:04:43;9.60;;;6.70;;
6432;SDS011;3249;42.690;23.260;2023-03-03T02:07:13;8.63;;;7.50;;
6432;SDS011;3249;42.690;23.260;2023-03-03T02:09:46;8.10;;;7.40;;
6432;SDS011;3249;42.690;23.260;2023-03-03T02:12:25;8.43;;;7.50;;
6432;SDS011;3249;42.690;23.260;2023-03-03T02:14:59;8.30;;;7.60;;
6432;SDS011;3249;42.690;23.260;2023-03-03T02:17:29;7.97;;;7.20;;
6432;SDS011;3249;42.690;23.260;2023-03-03T02:20:02;9.17;;;8.27;;
6432;SDS011;3249;42.690;23.260;2023-03-03T02:22:41;8.20;;;7.40;;
6432;SDS011;3249;42.690;23.260;2023-03-03T02:25:17;8.27;;;7.47;;
6432;SDS011;3249;42.690;23.260;2023-03-03T02:27:57;7.93;;;7.23;;
6432;SDS011;3249;42.690;23.260;2023-03-03T02:30:27;7.80;;;7.10;;
6432;SDS011;3249;42.690;23.260;2023-03-03T02:32:56;7.17;;;6.47;;
6432;SDS011;3249;42.690;23.260;2023-03-03T02:35:30;6.60;;;6.10;;
6432;SDS011;3249;42.690;23.260;2023-03-03T02:38:03;7.03;;;6.43;;
6432;SDS011;3249;42.690;23.260;2023-03-03T02:40:43;6.60;;;6.00;;
6432;SDS011;3249;42.690;23.260;2023-03-03T02:43:22;7.70;;;5.73;;
6432;SDS011;3249;42.690;23.260;2023-03-03T02:45:54;6.40;;;5.80;;
6432;SDS011;3249;42.690;23.260;2023-03-03T02:48:23;6.70;;;6.10;;
6432;SDS011;3249;42.690;23.260;2023-03-03T02:50:53;7.10;;;6.33;;
6432;SDS011;3249;42.690;23.260;2023-03-03T02:53:22;6.77;;;6.17;;
6432;SDS011;3249;42.690;23.260;2023-03-03T02:55:52;5.97;;;5.57;;
6432;SDS011;3249;42.690;23.260;2023-03-03T02:58:23;7.10;;;6.10;;
6432;SDS011;3249;42.690;23.260;2023-03-03T03:00:52;6.57;;;6.07;;
6432;SDS011;3249;42.690;23.260;2023-03-03T03:03:22;6.93;;;6.33;;
6432;SDS011;3249;42.690;23.260;2023-03-03T03:05:52;7.30;;;6.60;;
6432;SDS011;3249;42.690;23.260;2023-03-03T03:08:22;6.50;;;5.90;;
6432;SDS011;3249;42.690;23.260;2023-03-03T03:10:51;6.90;;;6.30;;
6432;SDS011;3249;42.690;23.260;2023-03-03T03:13:25;6.87;;;6.27;;
6432;SDS011;3249;42.690;23.260;2023-03-03T03:15:54;7.43;;;6.73;;
6432;SDS011;3249;42.690;23.260;2023-03-03T03:18:24;7.23;;;6.63;;
6432;SDS011;3249;42.690;23.260;2023-03-03T03:20:55;7.40;;;6.70;;
6432;SDS011;3249;42.690;23.260;2023-03-03T03:23:24;7.77;;;6.97;;
6432;SDS011;3249;42.690;23.260;2023-03-03T03:25:55;7.47;;;6.80;;
6432;SDS011;3249;42.690;23.260;2023-03-03T03:28:29;7.27;;;6.67;;
6432;SDS011;3249;42.690;23.260;2023-03-03T03:30:59;7.67;;;6.87;;
6432;SDS011;3249;42.690;23.260;2023-03-03T03:33:32;8.13;;;7.07;;
6432;SDS011;3249;42.690;23.260;2023-03-03T03:36:02;8.43;;;7.63;;
6432;SDS011;3249;42.690;23.260;2023-03-03T03:38:33;8.63;;;7.83;;
6432;SDS011;3249;42.690;23.260;2023-03-03T03:41:05;8.63;;;7.70;;
6432;SDS011;3249;42.690;23.260;2023-03-03T03:43:37;8.83;;;8.03;;
6432;SDS011;3249;42.690;23.260;2023-03-03T03:46:07;8.70;;;7.43;;
6432;SDS011;3249;42.690;23.260;2023-03-03T03:48:36;9.90;;;8.90;;
6432;SDS011;3249;42.690;23.260;2023-03-03T03:51:08;9.67;;;8.77;;
6432;SDS011;3249;42.690;23.260;2023-03-03T03:53:39;9.53;;;8.63;;
6432;SDS011;3249;42.690;23.260;2023-03-03T03:56:08;9.73;;;8.80;;
6432;SDS011;3249;42.690;23.260;2023-03-03T03:58:42;9.40;;;8.40;;
6432;SDS011;3249;42.690;23.260;2023-03-03T04:01:14;12.10;;;10.90;;
6432;SDS011;3249;42.690;23.260;2023-03-03T04:03:47;9.37;;;8.57;;
6432;SDS011;3249;42.690;23.260;2023-03-03T04:06:20;10.07;;;9.07;;
6432;SDS011;3249;42.690;23.260;2023-03-03T04:08:50;10.73;;;9.63;;
6432;SDS011;3249;42.690;23.260;2023-03-03T04:11:21;11.43;;;9.07;;
6432;SDS011;3249;42.690;23.260;2023-03-03T04:13:53;9.90;;;8.90;;
6432;SDS011;3249;42.690;23.260;2023-03-03T04:16:22;11.57;;;9.83;;
6432;SDS011;3249;42.690;23.260;2023-03-03T04:18:52;10.97;;;9.20;;
6432;SDS011;3249;42.690;23.260;2023-03-03T04:21:21;13.37;;;10.43;;
6432;SDS011;3249;42.690;23.260;2023-03-03T04:23:52;11.47;;;10.27;;
6432;SDS011;3249;42.690;23.260;2023-03-03T04:26:22;10.93;;;9.67;;
6432;SDS011;3249;42.690;23.260;2023-03-03T04:28:54;11.77;;;10.27;;
6432;SDS011;3249;42.690;23.260;2023-03-03T04:31:23;14.50;;;11.17;;
6432;SDS011;3249;42.690;23.260;2023-03-03T04:33:53;10.00;;;9.00;;
6432;SDS011;3249;42.690;23.260;2023-03-03T04:36:22;13.43;;;11.53;;
6432;SDS011;3249;42.690;23.260;2023-03-03T04:38:51;14.43;;;11.83;;
6432;SDS011;3249;42.690;23.260;2023-03-03T04:41:21;14.67;;;11.00;;
6432;SDS011;3249;42.690;23.260;2023-03-03T04:43:54;13.57;;;11.13;;
6432;SDS011;3249;42.690;23.260;2023-03-03T04:46:23;16.43;;;11.70;;
6432;SDS011;3249;42.690;23.260;2023-03-03T04:48:52;15.77;;;12.00;;
6432;SDS011;3249;42.690;23.260;2023-03-03T04:51:22;16.57;;;11.30;;
6432;SDS011;3249;42.690;23.260;2023-03-03T04:53:51;12.20;;;10.67;;
6432;SDS011;3249;42.690;23.260;2023-03-03T04:56:20;12.90;;;10.37;;
6432;SDS011;3249;42.690;23.260;2023-03-03T04:58:49;13.57;;;11.23;;
6432;SDS011;3249;42.690;23.260;2023-03-03T05:01:21;13.87;;;11.07;;
6432;SDS011;3249;42.690;23.260;2023-03-03T05:03:50;14.43;;;11.53;;
6432;SDS011;3249;42.690;23.260;2023-03-03T05:06:19;14.70;;;10.10;;
6432;SDS011;3249;42.690;23.260;2023-03-03T05:08:49;15.73;;;12.23;;
6432;SDS011;3249;42.690;23.260;2023-03-03T05:11:18;14.97;;;12.67;;
6432;SDS011;3249;42.690;23.260;2023-03-03T05:13:47;14.83;;;12.33;;
6432;SDS011;3249;42.690;23.260;2023-03-03T05:16:16;13.00;;;11.77;;
6432;SDS011;3249;42.690;23.260;2023-03-03T05:18:47;16.50;;;12.37;;
6432;SDS011;3249;42.690;23.260;2023-03-03T05:21:16;13.13;;;11.37;;
6432;SDS011;3249;42.690;23.260;2023-03-03T05:23:45;12.93;;;10.50;;
6432;SDS011;3249;42.690;23.260;2023-03-03T05:26:14;12.20;;;10.60;;
6432;SDS011;3249;42.690;23.260;2023-03-03T05:28:43;13.17;;;11.43;;
6432;SDS011;3249;42.690;23.260;2023-03-03T05:31:12;11.87;;;10.63;;
6432;SDS011;3249;42.690;23.260;2023-03-03T05:33:41;12.20;;;10.97;;
6432;SDS011;3249;42.690;23.260;2023-03-03T05:36:13;14.17;;;11.60;;
6432;SDS011;3249;42.690;23.260;2023-03-03T05:38:46;14.47;;;11.53;;
6432;SDS011;3249;42.690;23.260;2023-03-03T05:41:15;13.97;;;11.70;;
6432;SDS011;3249;42.690;23.260;2023-03-03T05:43:44;13.00;;;10.93;;
6432;SDS011;3249;42.690;23.260;2023-03-03T05:46:15;15.53;;;12.00;;
6432;SDS011;3249;42.690;23.260;2023-03-03T05:48:44;17.10;;;11.83;;
6432;SDS011;3249;42.690;23.260;2023-03-03T05:51:21;17.47;;;12.87;;
6432;SDS011;3249;42.690;23.260;2023-03-03T05:53:50;16.23;;;13.00;;
6432;SDS011;3249;42.690;23.260;2023-03-03T05:56:19;17.63;;;13.70;;
6432;SDS011;3249;42.690;23.260;2023-03-03T05:58:48;17.50;;;13.57;;
6432;SDS011;3249;42.690;23.260;2023-03-03T06:01:17;19.57;;;13.27;;
6432;SDS011;3249;42.690;23.260;2023-03-03T06:03:46;15.37;;;12.23;;
6432;SDS011;3249;42.690;23.260;2023-03-03T06:06:15;17.67;;;14.30;;
6432;SDS011;3249;42.690;23.260;2023-03-03T06:08:47;16.97;;;13.00;;
6432;SDS011;3249;42.690;23.260;2023-03-03T06:11:18;16.10;;;13.27;;
6432;SDS011;3249;42.690;23.260;2023-03-03T06:13:50;20.30;;;13.47;;
6432;SDS011;3249;42.690;23.260;2023-03-03T06:16:20;17.33;;;13.90;;
6432;SDS011;3249;42.690;23.260;2023-03-03T06:18:49;15.87;;;12.97;;
6432;SDS011;3249;42.690;23.260;2023-03-03T06:21:18;17.17;;;13.07;;
6432;SDS011;3249;42.690;23.260;2023-03-03T06:23:49;18.50;;;13.73;;
6432;SDS011;3249;42.690;23.260;2023-03-03T06:26:19;18.07;;;12.87;;
6432;SDS011;3249;42.690;23.260;2023-03-03T06:28:48;16.40;;;11.97;;
6432;SDS011;3249;42.690;23.260;2023-03-03T06:31:19;17.93;;;12.37;;
6432;SDS011;3249;42.690;23.260;2023-03-03T06:33:48;15.13;;;12.03;;
6432;SDS011;3249;42.690;23.260;2023-03-03T06:36:17;15.97;;;11.97;;
6432;SDS011;3249;42.690;23.260;2023-03-03T06:38:50;17.00;;;12.17;;
6432;SDS011;3249;42.690;23.260;2023-03-03T06:41:19;14.43;;;11.67;;
6432;SDS011;3249;42.690;23.260;2023-03-03T06:43:48;14.13;;;12.13;;
6432;SDS011;3249;42.690;23.260;2023-03-03T06:46:17;15.90;;;11.93;;
6432;SDS011;3249;42.690;23.260;2023-03-03T06:48:48;15.50;;;11.97;;
6432;SDS011;3249;42.690;23.260;2023-03-03T06:51:28;14.80;;;11.20;;
6432;SDS011;3249;42.690;23.260;2023-03-03T06:54:09;13.37;;;10.70;;
6432;SDS011;3249;42.690;23.260;2023-03-03T06:56:40;12.60;;;11.30;;
6432;SDS011;3249;42.690;23.260;2023-03-03T06:59:10;12.50;;;10.30;;
6432;SDS011;3249;42.690;23.260;2023-03-03T07:01:42;13.70;;;11.10;;
6432;SDS011;3249;42.690;23.260;2023-03-03T07:04:18;15.63;;;11.80;;
6432;SDS011;3249;42.690;23.260;2023-03-03T07:06:53;11.03;;;9.90;;
6432;SDS011;3249;42.690;23.260;2023-03-03T07:09:28;12.80;;;10.43;;
6432;SDS011;3249;42.690;23.260;2023-03-03T07:11:59;10.00;;;9.00;;
6432;SDS011;3249;42.690;23.260;2023-03-03T07:14:30;12.07;;;9.73;;
6432;SDS011;3249;42.690;23.260;2023-03-03T07:16:59;10.40;;;9.13;;
6432;SDS011;3249;42.690;23.260;2023-03-03T07:19:33;11.17;;;10.07;;
6432;SDS011;3249;42.690;23.260;2023-03-03T07:22:11;15.90;;;11.30;;
6432;SDS011;3249;42.690;23.260;2023-03-03T07:24:46;14.77;;;11.67;;
6432;SDS011;3249;42.690;23.260;2023-03-03T07:27:24;14.47;;;11.00;;
6432;SDS011;3249;42.690;23.260;2023-03-03T07:30:00;12.03;;;10.33;;
6432;SDS011;3249;42.690;23.260;2023-03-03T07:32:45;11.80;;;10.30;;
6432;SDS011;3249;42.690;23.260;2023-03-03T07:35:23;13.70;;;11.30;;
6432;SDS011;3249;42.690;23.260;2023-03-03T07:38:00;10.27;;;9.13;;
6432;SDS011;3249;42.690;23.260;2023-03-03T07:40:34;15.30;;;11.20;;
6432;SDS011;3249;42.690;23.260;2023-03-03T07:45:56;12.13;;;10.93;;
6432;SDS011;3249;42.690;23.260;2023-03-03T07:48:30;12.13;;;10.57;;
6432;SDS011;3249;42.690;23.260;2023-03-03T07:51:11;12.40;;;10.67;;
6432;SDS011;3249;42.690;23.260;2023-03-03T07:53:43;11.90;;;10.60;;
6432;SDS011;3249;42.690;23.260;2023-03-03T07:56:19;15.20;;;13.43;;
6432;SDS011;3249;42.690;23.260;2023-03-03T07:58:55;14.33;;;12.67;;
6432;SDS011;3249;42.690;23.260;2023-03-03T08:01:28;15.60;;;12.10;;
6432;SDS011;3249;42.690;23.260;2023-03-03T08:04:17;13.00;;;11.67;;
6432;SDS011;3249;42.690;23.260;2023-03-03T08:06:57;13.97;;;12.10;;
6432;SDS011;3249;42.690;23.260;2023-03-03T08:09:38;13.40;;;12.07;;
6432;SDS011;3249;42.690;23.260;2023-03-03T08:15:19;11.80;;;10.50;;
6432;SDS011;3249;42.690;23.260;2023-03-03T08:17:51;12.30;;;10.67;;
6432;SDS011;3249;42.690;23.260;2023-03-03T08:20:30;12.90;;;11.37;;
6432;SDS011;3249;42.690;23.260;2023-03-03T08:23:10;12.50;;;11.17;;
6432;SDS011;3249;42.690;23.260;2023-03-03T08:25:39;12.10;;;10.97;;
6432;SDS011;3249;42.690;23.260;2023-03-03T08:28:11;12.37;;;11.03;;
6432;SDS011;3249;42.690;23.260;2023-03-03T08:30:41;12.73;;;10.97;;
6432;SDS011;3249;42.690;23.260;2023-03-03T08:33:12;14.17;;;11.37;;
6432;SDS011;3249;42.690;23.260;2023-03-03T08:35:42;10.87;;;9.77;;
6432;SDS011;3249;42.690;23.260;2023-03-03T08:38:12;12.07;;;10.33;;
6432;SDS011;3249;42.690;23.260;2023-03-03T08:40:42;11.70;;;10.50;;
6432;SDS011;3249;42.690;23.260;2023-03-03T08:43:15;12.07;;;10.77;;
6432;SDS011;3249;42.690;23.260;2023-03-03T08:45:46;10.57;;;9.53;;
6432;SDS011;3249;42.690;23.260;2023-03-03T08:48:16;14.47;;;12.83;;
6432;SDS011;3249;42.690;23.260;2023-03-03T08:50:47;12.27;;;10.97;;
6432;SDS011;3249;42.690;23.260;2023-03-03T08:53:17;11.83;;;10.73;;
6432;SDS011;3249;42.690;23.260;2023-03-03T08:55:50;13.13;;;11.23;;
6432;SDS011;3249;42.690;23.260;2023-03-03T08:58:25;13.20;;;11.80;;
6432;SDS011;3249;42.690;23.260;2023-03-03T09:00:54;13.73;;;10.93;;
6432;SDS011;3249;42.690;23.260;2023-03-03T09:03:23;15.40;;;11.37;;
6432;SDS011;3249;42.690;23.260;2023-03-03T09:05:53;13.07;;;11.83;;
6432;SDS011;3249;42.690;23.260;2023-03-03T09:08:21;11.83;;;10.70;;
6432;SDS011;3249;42.690;23.260;2023-03-03T09:10:53;13.07;;;10.97;;
6432;SDS011;3249;42.690;23.260;2023-03-03T09:13:26;16.33;;;14.63;;
6432;SDS011;3249;42.690;23.260;2023-03-03T09:15:57;16.57;;;12.33;;
6432;SDS011;3249;42.690;23.260;2023-03-03T09:18:29;13.90;;;12.50;;
6432;SDS011;3249;42.690;23.260;2023-03-03T09:21:05;13.03;;;11.57;;
6432;SDS011;3249;42.690;23.260;2023-03-03T09:23:47;13.17;;;11.77;;
6432;SDS011;3249;42.690;23.260;2023-03-03T09:26:24;13.33;;;10.83;;
6432;SDS011;3249;42.690;23.260;2023-03-03T09:29:02;13.63;;;12.07;;
6432;SDS011;3249;42.690;23.260;2023-03-03T09:31:45;12.73;;;11.27;;
6432;SDS011;3249;42.690;23.260;2023-03-03T09:34:19;15.20;;;11.77;;
6432;SDS011;3249;42.690;23.260;2023-03-03T09:36:50;18.07;;;11.67;;
6432;SDS011;3249;42.690;23.260;2023-03-03T09:39:21;15.20;;;12.83;;
6432;SDS011;3249;42.690;23.260;2023-03-03T09:42:03;13.50;;;12.07;;
6432;SDS011;3249;42.690;23.260;2023-03-03T09:44:58;13.67;;;12.27;;
6432;SDS011;3249;42.690;23.260;2023-03-03T09:47:53;15.37;;;13.23;;
6432;SDS011;3249;42.690;23.260;2023-03-03T09:50:34;17.13;;;12.70;;
6432;SDS011;3249;42.690;23.260;2023-03-03T09:53:12;17.17;;;14.43;;
6432;SDS011;3249;42.690;23.260;2023-03-03T09:55:53;32.17;;;27.20;;
6432;SDS011;3249;42.690;23.260;2023-03-03T09:58:34;37.17;;;31.23;;
6432;SDS011;3249;42.690;23.260;2023-03-03T10:01:21;42.13;;;33.93;;
6432;SDS011;3249;42.690;23.260;2023-03-03T10:04:14;26.93;;;22.57;;
6432;SDS011;3249;42.690;23.260;2023-03-03T10:07:12;21.47;;;16.43;;
6432;SDS011;3249;42.690;23.260;2023-03-03T10:09:56;21.40;;;16.67;;
6432;SDS011;3249;42.690;23.260;2023-03-03T10:12:46;18.80;;;16.53;;
6432;SDS011;3249;42.690;23.260;2023-03-03T10:15:28;38.20;;;31.40;;
6432;SDS011;3249;42.690;23.260;2023-03-03T10:18:11;28.43;;;23.73;;
6432;SDS011;3249;42.690;23.260;2023-03-03T10:20:55;28.67;;;22.23;;
6432;SDS011;3249;42.690;23.260;2023-03-03T10:23:42;23.47;;;19.63;;
6432;SDS011;3249;42.690;23.260;2023-03-03T10:26:24;23.90;;;19.77;;
6432;SDS011;3249;42.690;23.260;2023-03-03T10:29:17;27.27;;;22.07;;
6432;SDS011;3249;42.690;23.260;2023-03-03T10:31:55;30.27;;;23.23;;
6432;SDS011;3249;42.690;23.260;2023-03-03T10:34:45;27.70;;;21.63;;
6432;SDS011;3249;42.690;23.260;2023-03-03T10:37:32;25.90;;;21.00;;
6432;SDS011;3249;42.690;23.260;2023-03-03T10:40:14;25.73;;;22.27;;
6432;SDS011;3249;42.690;23.260;2023-03-03T10:42:56;26.57;;;21.67;;
6432;SDS011;3249;42.690;23.260;2023-03-03T10:45:51;35.53;;;29.63;;
6432;SDS011;3249;42.690;23.260;2023-03-03T10:48:47;27.33;;;22.97;;
6432;SDS011;3249;42.690;23.260;2023-03-03T10:51:40;26.70;;;22.43;;
6432;SDS011;3249;42.690;23.260;2023-03-03T10:54:27;21.80;;;19.57;;
6432;SDS011;3249;42.690;23.260;2023-03-03T10:57:11;20.23;;;18.03;;
6432;SDS011;3249;42.690;23.260;2023-03-03T10:59:52;19.63;;;17.53;;
6432;SDS011;3249;42.690;23.260;2023-03-03T11:02:32;20.63;;;17.27;;
6432;SDS011;3249;42.690;23.260;2023-03-03T11:05:16;22.63;;;18.70;;
6432;SDS011;3249;42.690;23.260;2023-03-03T11:07:59;21.50;;;18.03;;
6432;SDS011;3249;42.690;23.260;2023-03-03T11:10:43;19.60;;;17.50;;
6432;SDS011;3249;42.690;23.260;2023-03-03T11:13:20;19.57;;;16.63;;
6432;SDS011;3249;42.690;23.260;2023-03-03T11:16:05;22.23;;;18.83;;
6432;SDS011;3249;42.690;23.260;2023-03-03T11:19:04;23.57;;;18.40;;
6432;SDS011;3249;42.690;23.260;2023-03-03T11:21:40;23.17;;;19.53;;
6432;SDS011;3249;42.690;23.260;2023-03-03T11:24:22;26.00;;;20.93;;
6432;SDS011;3249;42.690;23.260;2023-03-03T11:27:07;23.93;;;19.53;;
6432;SDS011;3249;42.690;23.260;2023-03-03T11:29:55;24.23;;;19.17;;
6432;SDS011;3249;42.690;23.260;2023-03-03T11:32:34;22.33;;;19.00;;
6432;SDS011;3249;42.690;23.260;2023-03-03T11:35:18;20.73;;;18.37;;
6432;SDS011;3249;42.690;23.260;2023-03-03T11:37:55;23.60;;;19.43;;
6432;SDS011;3249;42.690;23.260;2023-03-03T11:40:39;21.10;;;18.20;;
6432;SDS011;3249;42.690;23.260;2023-03-03T11:43:16;20.70;;;17.87;;
6432;SDS011;3249;42.690;23.260;2023-03-03T11:45:50;23.77;;;18.30;;
6432;SDS011;3249;42.690;23.260;2023-03-03T11:48:25;21.50;;;17.00;;
6432;SDS011;3249;42.690;23.260;2023-03-03T11:51:02;19.00;;;16.43;;
6432;SDS011;3249;42.690;23.260;2023-03-03T11:53:39;19.60;;;16.00;;
6432;SDS011;3249;42.690;23.260;2023-03-03T11:56:29;16.00;;;14.30;;
6432;SDS011;3249;42.690;23.260;2023-03-03T11:59:12;19.67;;;17.33;;
6432;SDS011;3249;42.690;23.260;2023-03-03T12:02:03;21.33;;;17.73;;
6432;SDS011;3249;42.690;23.260;2023-03-03T12:04:41;17.63;;;15.53;;
6432;SDS011;3249;42.690;23.260;2023-03-03T12:07:20;20.63;;;16.20;;
6432;SDS011;3249;42.690;23.260;2023-03-03T12:10:01;17.20;;;15.17;;
6432;SDS011;3249;42.690;23.260;2023-03-03T12:12:39;13.70;;;12.23;;
6432;SDS011;3249;42.690;23.260;2023-03-03T12:15:14;18.13;;;16.13;;
6432;SDS011;3249;42.690;23.260;2023-03-03T12:17:56;23.87;;;16.17;;
6432;SDS011;3249;42.690;23.260;2023-03-03T12:20:44;22.87;;;17.60;;
6432;SDS011;3249;42.690;23.260;2023-03-03T12:26:20;16.97;;;14.97;;
6432;SDS011;3249;42.690;23.260;2023-03-03T12:29:04;15.03;;;13.53;;
6432;SDS011;3249;42.690;23.260;2023-03-03T12:31:38;18.23;;;16.10;;
6432;SDS011;3249;42.690;23.260;2023-03-03T12:34:18;15.03;;;13.43;;
6432;SDS011;3249;42.690;23.260;2023-03-03T12:36:57;16.60;;;14.20;;
6432;SDS011;3249;42.690;23.260;2023-03-03T12:39:37;15.20;;;13.60;;
6432;SDS011;3249;42.690;23.260;2023-03-03T12:42:15;12.30;;;10.73;;
6432;SDS011;3249;42.690;23.260;2023-03-03T12:44:58;8.87;;;8.07;;
6432;SDS011;3249;42.690;23.260;2023-03-03T12:47:36;7.97;;;6.70;;
6432;SDS011;3249;42.690;23.260;2023-03-03T12:50:19;6.50;;;5.93;;
6432;SDS011;3249;42.690;23.260;2023-03-03T12:52:57;6.20;;;5.70;;
6432;SDS011;3249;42.690;23.260;2023-03-03T12:55:32;7.83;;;7.23;;
6432;SDS011;3249;42.690;23.260;2023-03-03T12:58:12;8.77;;;8.00;;
6432;SDS011;3249;42.690;23.260;2023-03-03T13:00:56;7.57;;;6.97;;
6432;SDS011;3249;42.690;23.260;2023-03-03T13:03:39;8.30;;;7.50;;
6432;SDS011;3249;42.690;23.260;2023-03-03T13:06:19;6.80;;;6.20;;
6432;SDS011;3249;42.690;23.260;2023-03-03T13:08:57;7.43;;;6.83;;
6432;SDS011;3249;42.690;23.260;2023-03-03T13:11:37;8.77;;;7.97;;
6432;SDS011;3249;42.690;23.260;2023-03-03T13:14:22;8.23;;;7.43;;
6432;SDS011;3249;42.690;23.260;2023-03-03T13:17:04;7.37;;;6.70;;
6432;SDS011;3249;42.690;23.260;2023-03-03T13:19:45;9.03;;;8.17;;
6432;SDS011;3249;42.690;23.260;2023-03-03T13:22:33;11.57;;;8.73;;
6432;SDS011;3249;42.690;23.260;2023-03-03T13:25:13;10.77;;;9.63;;
6432;SDS011;3249;42.690;23.260;2023-03-03T13:28:04;9.70;;;8.70;;
6432;SDS011;3249;42.690;23.260;2023-03-03T13:30:45;8.30;;;7.47;;
6432;SDS011;3249;42.690;23.260;2023-03-03T13:33:23;8.27;;;7.47;;
6432;SDS011;3249;42.690;23.260;2023-03-03T13:35:55;10.57;;;9.43;;
6432;SDS011;3249;42.690;23.260;2023-03-03T13:38:28;8.93;;;8.07;;
6432;SDS011;3249;42.690;23.260;2023-03-03T13:41:03;10.10;;;9.00;;
6432;SDS011;3249;42.690;23.260;2023-03-03T13:43:37;9.30;;;8.47;;
6432;SDS011;3249;42.690;23.260;2023-03-03T13:46:14;16.83;;;12.20;;
6432;SDS011;3249;42.690;23.260;2023-03-03T13:48:57;9.50;;;8.60;;
6432;SDS011;3249;42.690;23.260;2023-03-03T13:51:49;7.57;;;6.93;;
6432;SDS011;3249;42.690;23.260;2023-03-03T13:57:24;11.50;;;8.83;;
6432;SDS011;3249;42.690;23.260;2023-03-03T14:00:09;10.17;;;7.43;;
6432;SDS011;3249;42.690;23.260;2023-03-03T14:02:50;13.43;;;9.67;;
6432;SDS011;3249;42.690;23.260;2023-03-03T14:05:43;7.97;;;7.17;;
6432;SDS011;3249;42.690;23.260;2023-03-03T14:08:16;7.57;;;6.87;;
6432;SDS011;3249;42.690;23.260;2023-03-03T14:11:04;7.43;;;6.83;;
6432;SDS011;3249;42.690;23.260;2023-03-03T14:13:40;9.30;;;8.40;;
6432;SDS011;3249;42.690;23.260;2023-03-03T14:16:19;12.97;;;11.67;;
6432;SDS011;3249;42.690;23.260;2023-03-03T14:19:00;15.37;;;11.70;;
6432;SDS011;3249;42.690;23.260;2023-03-03T14:21:37;14.07;;;10.80;;
6432;SDS011;3249;42.690;23.260;2023-03-03T14:24:14;12.57;;;11.27;;
6432;SDS011;3249;42.690;23.260;2023-03-03T14:26:46;14.50;;;11.87;;
6432;SDS011;3249;42.690;23.260;2023-03-03T14:29:19;8.03;;;7.23;;
6432;SDS011;3249;42.690;23.260;2023-03-03T14:31:50;6.93;;;6.43;;
6432;SDS011;3249;42.690;23.260;2023-03-03T14:37:28;13.27;;;10.17;;
6432;SDS011;3249;42.690;23.260;2023-03-03T14:40:14;7.60;;;7.00;;
6432;SDS011;3249;42.690;23.260;2023-03-03T14:42:47;7.33;;;6.73;;
6432;SDS011;3249;42.690;23.260;2023-03-03T14:45:28;8.83;;;8.03;;
6432;SDS011;3249;42.690;23.260;2023-03-03T14:48:05;8.80;;;8.10;;
6432;SDS011;3249;42.690;23.260;2023-03-03T14:50:43;7.30;;;6.73;;
6432;SDS011;3249;42.690;23.260;2023-03-03T14:53:34;8.77;;;8.03;;
6432;SDS011;3249;42.690;23.260;2023-03-03T14:56:16;7.53;;;6.93;;
6432;SDS011;3249;42.690;23.260;2023-03-03T14:58:50;8.90;;;8.13;;
6432;SDS011;3249;42.690;23.260;2023-03-03T15:01:22;8.93;;;8.10;;
6432;SDS011;3249;42.690;23.260;2023-03-03T15:03:59;8.33;;;7.60;;
6432;SDS011;3249;42.690;23.260;2023-03-03T15:06:34;7.70;;;6.97;;
6432;SDS011;3249;42.690;23.260;2023-03-03T15:09:28;9.70;;;8.80;;
6432;SDS011;3249;42.690;23.260;2023-03-03T15:12:16;10.47;;;9.37;;
6432;SDS011;3249;42.690;23.260;2023-03-03T15:14:48;12.23;;;10.53;;
6432;SDS011;3249;42.690;23.260;2023-03-03T15:17:23;11.77;;;10.60;;
6432;SDS011;3249;42.690;23.260;2023-03-03T15:23:02;11.23;;;10.00;;
6432;SDS011;3249;42.690;23.260;2023-03-03T15:25:46;9.53;;;8.63;;
6432;SDS011;3249;42.690;23.260;2023-03-03T15:31:19;11.37;;;10.10;;
6432;SDS011;3249;42.690;23.260;2023-03-03T15:34:01;9.20;;;8.40;;
6432;SDS011;3249;42.690;23.260;2023-03-03T15:36:42;9.43;;;8.53;;
6432;SDS011;3249;42.690;23.260;2023-03-03T15:39:19;7.87;;;7.17;;
6432;SDS011;3249;42.690;23.260;2023-03-03T15:41:59;11.30;;;10.27;;
6432;SDS011;3249;42.690;23.260;2023-03-03T15:44:35;10.97;;;9.97;;
6432;SDS011;3249;42.690;23.260;2023-03-03T15:47:23;12.77;;;11.50;;
6432;SDS011;3249;42.690;23.260;2023-03-03T15:50:30;14.33;;;12.93;;
6432;SDS011;3249;42.690;23.260;2023-03-03T15:53:26;11.67;;;10.50;;
6432;SDS011;3249;42.690;23.260;2023-03-03T15:56:23;11.67;;;10.47;;
6432;SDS011;3249;42.690;23.260;2023-03-03T15:59:11;10.87;;;9.80;;